Time;durP1;ratioP1;P1;durP2;ratioP2;P2;SDS_P1;SDS_P2;PMS_P1;PMS_P2;Temp;Humidity;BMP_temperature;BMP_pressure;BME280_temperature;BME280_humidity;BME280_pressure;Samples;Min_cycle;Max_cycle;Signal;HPM_P1;HPM_P2
2023/08/22 00:01:07;;;;;;;9.10;7.68;;;23.80;99.90;;;;;;4974357;28;20196;-31
2023/08/22 00:03:33;;;;;;;9.15;7.57;;;23.70;99.90;;;;;;4986522;28;20192;-31
2023/08/22 00:05:59;;;;;;;9.43;7.80;;;23.60;99.90;;;;;;4971036;28;20183;-31
2023/08/22 00:08:25;;;;;;;9.05;7.35;;;23.60;99.90;;;;;;4957352;28;20180;-31
2023/08/22 00:10:51;;;;;;;8.52;7.70;;;23.60;99.90;;;;;;4959204;28;20212;-31
2023/08/22 00:13:16;;;;;;;8.02;7.22;;;23.60;99.90;;;;;;4996441;28;20176;-31
2023/08/22 00:15:42;;;;;;;7.85;7.05;;;23.50;99.90;;;;;;4954449;28;20235;-31
2023/08/22 00:18:08;;;;;;;10.40;7.30;;;23.50;99.90;;;;;;4972538;28;20230;-31
2023/08/22 00:20:36;;;;;;;8.57;7.70;;;23.50;99.90;;;;;;4973936;28;20685;-31
2023/08/22 00:23:03;;;;;;;9.85;7.60;;;23.50;99.90;;;;;;4941034;28;20239;-31
2023/08/22 00:25:29;;;;;;;8.05;7.18;;;23.50;99.90;;;;;;4973782;28;20172;-31
2023/08/22 00:27:55;;;;;;;13.45;8.75;;;23.40;99.90;;;;;;4955434;28;20177;-31
2023/08/22 00:30:21;;;;;;;9.52;8.38;;;23.40;99.90;;;;;;4954917;28;20211;-31
2023/08/22 00:32:48;;;;;;;9.75;8.32;;;23.40;99.90;;;;;;4974341;28;20176;-31
2023/08/22 00:35:14;;;;;;;10.50;8.65;;;23.40;99.90;;;;;;4958073;28;20184;-30
2023/08/22 00:37:39;;;;;;;9.63;8.73;;;23.40;99.90;;;;;;4957891;28;20198;-31
2023/08/22 00:40:06;;;;;;;12.85;8.73;;;23.30;99.90;;;;;;4962126;28;20291;-31
2023/08/22 00:42:32;;;;;;;9.63;8.13;;;23.30;99.90;;;;;;4966131;28;20195;-31
2023/08/22 00:45:00;;;;;;;8.88;8.00;;;23.30;99.90;;;;;;4954845;28;20192;-31
2023/08/22 00:47:26;;;;;;;10.30;8.63;;;23.20;99.90;;;;;;4958122;28;20176;-31
2023/08/22 00:49:52;;;;;;;10.40;8.25;;;23.20;99.90;;;;;;4973917;28;20199;-31
2023/08/22 00:52:21;;;;;;;12.00;8.40;;;23.20;99.90;;;;;;4976113;28;20218;-31
2023/08/22 00:54:48;;;;;;;9.30;8.32;;;23.30;99.90;;;;;;4977764;28;20167;-31
2023/08/22 00:57:14;;;;;;;10.95;8.57;;;23.20;99.90;;;;;;4958506;28;20189;-31
2023/08/22 00:59:41;;;;;;;11.02;7.78;;;23.20;99.90;;;;;;4977116;28;20210;-31
2023/08/22 01:02:07;;;;;;;9.93;8.48;;;23.20;99.90;;;;;;4963815;28;20258;-31
2023/08/22 01:04:34;;;;;;;11.30;8.32;;;23.20;99.90;;;;;;4966676;28;20280;-31
2023/08/22 01:07:24;;;;;;;9.32;8.43;;;23.20;99.90;;;;;;4958821;28;20267;-31
2023/08/22 01:10:27;;;;;;;9.07;8.15;;;23.20;99.90;;;;;;4990409;28;20204;-31
2023/08/22 01:12:59;;;;;;;10.48;8.63;;;23.10;99.90;;;;;;4971506;28;20266;-31
2023/08/22 01:15:27;;;;;;;9.52;8.60;;;23.10;99.90;;;;;;4978042;28;20248;-31
2023/08/22 01:17:56;;;;;;;10.35;9.25;;;23.10;99.90;;;;;;4961653;28;20247;-31
2023/08/22 01:20:25;;;;;;;13.20;9.23;;;23.10;99.90;;;;;;4963176;28;20240;-31
2023/08/22 01:22:51;;;;;;;9.45;8.38;;;23.10;99.90;;;;;;4974342;28;20210;-31
2023/08/22 01:25:17;;;;;;;14.05;8.80;;;22.90;99.90;;;;;;4959001;28;20180;-31
2023/08/22 01:28:09;;;;;;;8.90;7.95;;;22.90;99.90;;;;;;4958236;28;20180;-31
2023/08/22 01:30:46;;;;;;;9.82;8.10;;;22.90;99.90;;;;;;4970982;28;20207;-31
2023/08/22 01:33:25;;;;;;;8.80;7.90;;;22.90;99.90;;;;;;4961100;28;20176;-31
2023/08/22 01:35:54;;;;;;;9.20;8.23;;;22.90;99.90;;;;;;4993346;28;20180;-31
2023/08/22 01:38:22;;;;;;;11.48;8.50;;;22.90;99.90;;;;;;4957919;28;20197;-31
2023/08/22 01:40:48;;;;;;;9.05;8.00;;;22.80;99.90;;;;;;4977196;28;20184;-31
2023/08/22 01:43:15;;;;;;;9.40;8.45;;;22.70;99.90;;;;;;4963704;28;20194;-31
2023/08/22 01:45:40;;;;;;;11.38;8.82;;;22.70;99.90;;;;;;4993855;28;20255;-31
2023/08/22 01:48:06;;;;;;;9.75;7.57;;;22.50;99.90;;;;;;4979354;28;20190;-31
2023/08/22 01:50:32;;;;;;;10.18;8.43;;;22.50;99.90;;;;;;4972686;28;20216;-31
2023/08/22 01:52:58;;;;;;;9.23;8.35;;;22.40;99.90;;;;;;4984476;28;20219;-31
2023/08/22 01:55:24;;;;;;;9.02;7.97;;;22.50;99.90;;;;;;4973572;28;20185;-31
2023/08/22 01:57:50;;;;;;;8.77;7.88;;;22.40;99.90;;;;;;4976150;28;20249;-31
2023/08/22 02:00:15;;;;;;;9.85;8.20;;;22.40;99.90;;;;;;4992127;28;20267;-31
2023/08/22 02:02:41;;;;;;;9.48;8.48;;;22.40;99.90;;;;;;4987390;28;20184;-31
2023/08/22 02:05:08;;;;;;;10.27;8.18;;;22.40;99.90;;;;;;4974970;28;20192;-31
2023/08/22 02:07:35;;;;;;;9.68;8.68;;;22.40;99.90;;;;;;4968557;28;20183;-31
2023/08/22 02:10:01;;;;;;;9.65;8.57;;;22.40;99.90;;;;;;4961074;28;20200;-31
2023/08/22 02:12:27;;;;;;;8.20;7.45;;;22.40;99.90;;;;;;4963768;28;20211;-31
2023/08/22 02:14:53;;;;;;;10.13;8.30;;;22.40;99.90;;;;;;4976799;28;20180;-31
2023/08/22 02:17:20;;;;;;;12.55;9.52;;;22.40;99.90;;;;;;4966682;28;20176;-31
2023/08/22 02:19:46;;;;;;;9.93;8.68;;;22.30;99.90;;;;;;4967464;28;20208;-31
2023/08/22 02:22:13;;;;;;;12.88;9.75;;;22.30;99.90;;;;;;4960638;28;20192;-31
2023/08/22 02:24:39;;;;;;;10.18;9.13;;;22.40;99.90;;;;;;4968358;28;20264;-31
2023/08/22 02:27:05;;;;;;;9.77;8.80;;;22.30;99.90;;;;;;4958087;28;20180;-31
2023/08/22 02:29:31;;;;;;;9.85;8.90;;;22.30;99.90;;;;;;4963229;28;20208;-31
2023/08/22 02:31:57;;;;;;;11.18;8.93;;;22.30;99.90;;;;;;4968150;28;20223;-31
2023/08/22 02:34:25;;;;;;;9.23;8.32;;;22.20;99.90;;;;;;4976483;28;20180;-31
2023/08/22 02:36:51;;;;;;;9.75;8.85;;;22.20;99.90;;;;;;4960050;28;20176;-31
2023/08/22 02:39:17;;;;;;;8.90;8.02;;;22.30;99.90;;;;;;4964509;28;20205;-31
2023/08/22 02:41:43;;;;;;;11.02;9.05;;;22.20;99.90;;;;;;4959294;28;20338;-31
2023/08/22 02:44:09;;;;;;;9.80;8.90;;;22.20;99.90;;;;;;4956821;28;20282;-31
2023/08/22 02:46:34;;;;;;;10.23;8.43;;;22.20;99.90;;;;;;4993119;28;20223;-31
2023/08/22 02:49:00;;;;;;;9.20;8.40;;;22.20;99.90;;;;;;4960047;28;20291;-31
2023/08/22 02:51:27;;;;;;;9.25;8.27;;;22.20;99.90;;;;;;4973627;28;20382;-31
2023/08/22 02:53:53;;;;;;;11.00;8.77;;;22.10;99.90;;;;;;4960149;28;20176;-31
2023/08/22 02:56:19;;;;;;;8.65;7.85;;;22.10;99.90;;;;;;4965975;28;20184;-31
2023/08/22 02:58:46;;;;;;;9.20;8.30;;;22.00;99.90;;;;;;4957443;28;20203;-31
2023/08/22 03:01:12;;;;;;;9.68;8.00;;;22.00;99.90;;;;;;4959581;28;20187;-31
2023/08/22 03:03:43;;;;;;;9.45;8.63;;;22.00;99.90;;;;;;4968018;28;20211;-31
2023/08/22 03:06:09;;;;;;;8.90;8.10;;;22.00;99.90;;;;;;4947372;28;20199;-31
2023/08/22 03:08:36;;;;;;;9.45;8.40;;;21.90;99.90;;;;;;4983545;28;20347;-31
2023/08/22 03:11:03;;;;;;;13.88;8.80;;;21.90;99.90;;;;;;4960713;28;20228;-31
2023/08/22 03:13:30;;;;;;;13.05;9.63;;;21.80;99.90;;;;;;4978454;28;20180;-31
2023/08/22 03:15:57;;;;;;;9.35;8.25;;;21.80;99.90;;;;;;4959706;28;20180;-31
2023/08/22 03:18:25;;;;;;;8.95;8.05;;;21.80;99.90;;;;;;4965697;28;20184;-31
2023/08/22 03:20:56;;;;;;;9.95;8.95;;;21.80;99.90;;;;;;4963767;28;20191;-31
2023/08/22 03:23:25;;;;;;;9.25;8.35;;;21.80;99.90;;;;;;4964145;28;20191;-31
2023/08/22 03:25:59;;;;;;;10.43;8.90;;;21.80;99.90;;;;;;4957032;28;20181;-31
2023/08/22 03:28:25;;;;;;;9.07;8.05;;;21.80;99.90;;;;;;4958765;28;20231;-31
2023/08/22 03:31:02;;;;;;;10.20;8.63;;;21.80;99.90;;;;;;4967056;28;20303;-31
2023/08/22 03:33:30;;;;;;;10.20;8.18;;;21.80;99.90;;;;;;4956613;28;20189;-31
2023/08/22 03:35:59;;;;;;;9.32;8.40;;;21.70;99.90;;;;;;4963446;28;20183;-31
2023/08/22 03:38:26;;;;;;;10.30;8.43;;;21.70;99.90;;;;;;4991314;28;20274;-31
2023/08/22 03:40:55;;;;;;;11.35;9.55;;;21.70;99.90;;;;;;4967231;28;20187;-31
2023/08/22 03:43:21;;;;;;;9.68;8.77;;;21.60;99.90;;;;;;4956332;28;20184;-31
2023/08/22 03:45:47;;;;;;;9.82;8.82;;;21.60;99.90;;;;;;4958803;28;20180;-31
2023/08/22 03:48:14;;;;;;;11.95;8.35;;;21.60;99.90;;;;;;4966678;28;20187;-31
2023/08/22 03:50:41;;;;;;;10.02;8.45;;;21.60;99.90;;;;;;4974003;28;20209;-31
2023/08/22 03:53:11;;;;;;;9.57;8.57;;;21.60;99.90;;;;;;4958078;28;20184;-31
2023/08/22 03:55:38;;;;;;;10.02;9.07;;;21.60;99.90;;;;;;4983172;28;20634;-31
2023/08/22 03:58:04;;;;;;;8.85;7.95;;;21.50;99.90;;;;;;4971578;28;20212;-31
2023/08/22 04:00:30;;;;;;;12.07;9.00;;;21.50;99.90;;;;;;4957581;28;20266;-31
2023/08/22 04:02:58;;;;;;;9.02;8.10;;;21.50;99.90;;;;;;4958655;28;20176;-31
2023/08/22 04:05:24;;;;;;;10.23;8.13;;;21.40;99.90;;;;;;4950872;28;20283;-31
2023/08/22 04:07:52;;;;;;;11.07;8.43;;;21.40;99.90;;;;;;4958316;28;20709;-31
2023/08/22 04:10:18;;;;;;;9.70;8.70;;;21.40;99.90;;;;;;4956050;28;20201;-31
2023/08/22 04:12:45;;;;;;;10.15;7.70;;;21.30;99.90;;;;;;4960758;28;20207;-31
2023/08/22 04:15:12;;;;;;;9.20;8.13;;;21.20;99.90;;;;;;4958929;28;20303;-30
2023/08/22 04:17:41;;;;;;;12.32;8.32;;;21.30;99.90;;;;;;4966363;28;20199;-31
2023/08/22 10:01:39;;;;;;;6.03;4.85;;;31.70;99.90;;;;;;4982608;29;20164;-95
2023/08/22 10:04:07;;;;;;;7.00;4.82;;;31.70;99.90;;;;;;4951260;28;20205;-30
2023/08/22 10:06:35;;;;;;;7.13;4.72;;;31.70;99.90;;;;;;4919678;28;20182;-30
2023/08/22 10:09:07;;;;;;;6.88;4.45;;;31.60;99.90;;;;;;4941734;28;20200;-31
2023/08/22 10:11:47;;;;;;;6.72;4.55;;;31.80;99.90;;;;;;4923824;28;20259;-30
2023/08/22 10:14:20;;;;;;;5.40;4.43;;;31.90;99.90;;;;;;4946041;29;20185;-30
2023/08/22 10:19:23;;;;;;;5.03;4.32;;;32.10;99.90;;;;;;4978678;28;20246;-33
2023/08/22 10:21:50;;;;;;;5.55;4.32;;;32.30;99.90;;;;;;4927891;29;20320;-33
2023/08/22 10:24:26;;;;;;;6.10;4.40;;;32.50;99.90;;;;;;4964207;28;20263;-33
2023/08/22 10:27:07;;;;;;;5.05;4.25;;;32.60;99.90;;;;;;4953729;28;20330;-33
2023/08/22 10:29:36;;;;;;;5.90;4.85;;;32.50;99.90;;;;;;4942035;28;20271;-33
2023/08/22 10:32:04;;;;;;;6.07;4.35;;;32.60;99.90;;;;;;4959023;28;20332;-32
2023/08/22 10:34:40;;;;;;;4.75;4.30;;;32.80;99.90;;;;;;4946421;28;20176;-33
2023/08/22 10:37:16;;;;;;;4.95;4.45;;;33.00;99.90;;;;;;4962967;28;20199;-33
2023/08/22 10:39:51;;;;;;;4.82;4.43;;;33.20;99.90;;;;;;4946942;28;20175;-31
2023/08/22 10:42:24;;;;;;;7.40;4.78;;;33.30;99.90;;;;;;4951491;28;20286;-42
2023/08/22 10:44:50;;;;;;;5.80;4.00;;;33.50;99.90;;;;;;4940971;28;20181;-42
2023/08/22 10:47:35;;;;;;;5.68;4.70;;;33.40;99.90;;;;;;4945276;29;20216;-42
2023/08/22 10:50:03;;;;;;;5.10;4.20;;;33.40;99.90;;;;;;4934304;28;20191;-42
2023/08/22 10:52:36;;;;;;;5.47;4.00;;;33.40;99.90;;;;;;4942342;28;20213;-42
2023/08/22 10:55:11;;;;;;;5.72;4.63;;;33.30;99.90;;;;;;4948647;28;20177;-42
2023/08/22 10:57:38;;;;;;;4.78;4.18;;;33.50;99.90;;;;;;4963173;28;20181;-42
2023/08/22 11:00:12;;;;;;;5.10;4.13;;;33.50;99.90;;;;;;4953259;28;20634;-42
2023/08/22 11:02:40;;;;;;;4.70;4.30;;;33.50;99.90;;;;;;4965026;28;20175;-42
2023/08/22 11:05:15;;;;;;;8.80;4.25;;;33.70;99.90;;;;;;4939221;28;20267;-43
2023/08/22 11:07:44;;;;;;;5.03;3.83;;;33.60;99.90;;;;;;4964111;28;20197;-43
2023/08/22 11:10:24;;;;;;;5.40;4.18;;;33.50;99.90;;;;;;4979174;28;20188;-43
2023/08/22 11:12:55;;;;;;;4.88;4.32;;;33.50;99.90;;;;;;4958425;28;20290;-43
2023/08/22 11:15:22;;;;;;;4.47;4.10;;;33.50;99.90;;;;;;4967505;28;20211;-43
2023/08/22 11:17:50;;;;;;;5.80;4.22;;;33.40;99.90;;;;;;4959040;28;20716;-43
2023/08/22 11:20:23;;;;;;;5.78;4.25;;;33.40;99.90;;;;;;4967334;28;20234;-43
2023/08/22 11:22:49;;;;;;;5.60;3.97;;;33.40;99.90;;;;;;4975609;28;20197;-43
2023/08/22 11:25:26;;;;;;;4.35;3.83;;;33.50;99.90;;;;;;4936804;29;20235;-43
2023/08/22 11:27:52;;;;;;;6.78;3.83;;;33.50;99.90;;;;;;4963438;28;20199;-43
2023/08/22 11:30:19;;;;;;;5.78;4.07;;;33.40;99.90;;;;;;4964062;28;20191;-43
2023/08/22 11:32:46;;;;;;;5.25;4.15;;;33.50;99.90;;;;;;4961524;28;20214;-42
2023/08/22 11:35:12;;;;;;;5.07;4.20;;;33.60;99.90;;;;;;4949443;28;20180;-42
2023/08/22 11:37:41;;;;;;;4.78;4.20;;;33.70;99.90;;;;;;4956931;28;20185;-42
2023/08/22 11:40:14;;;;;;;4.40;4.00;;;33.80;99.90;;;;;;4966843;28;20191;-42
2023/08/22 11:42:40;;;;;;;5.00;3.88;;;33.90;99.90;;;;;;4966099;28;20180;-42
2023/08/22 11:45:21;;;;;;;5.60;4.18;;;33.90;99.90;;;;;;4969477;28;20235;-43
2023/08/22 11:47:49;;;;;;;7.13;4.10;;;34.10;99.90;;;;;;4972116;28;20190;-42
2023/08/22 11:50:27;;;;;;;4.53;3.63;;;34.20;99.90;;;;;;4969523;28;20219;-42
2023/08/22 11:52:57;;;;;;;5.05;4.07;;;34.20;99.90;;;;;;4971624;28;20208;-43
2023/08/22 11:55:26;;;;;;;5.13;4.10;;;33.90;99.90;;;;;;4939460;28;20691;-42
2023/08/22 11:58:02;;;;;;;6.05;4.03;;;33.80;99.90;;;;;;4938490;28;20220;-42
2023/08/22 12:00:30;;;;;;;4.82;4.07;;;33.40;99.90;;;;;;4955839;28;20184;-43
2023/08/22 12:02:57;;;;;;;5.00;4.15;;;33.30;99.90;;;;;;4936130;29;20181;-43
2023/08/22 12:05:45;;;;;;;6.13;4.15;;;33.50;99.90;;;;;;4926503;28;20235;-43
2023/08/22 12:08:18;;;;;;;4.70;4.20;;;33.80;99.90;;;;;;4940215;29;20173;-43
2023/08/22 12:10:45;;;;;;;4.88;3.97;;;34.00;99.90;;;;;;4964603;28;20252;-43
2023/08/22 12:13:13;;;;;;;5.78;4.25;;;34.20;99.90;;;;;;4937044;28;20198;-43
2023/08/22 12:15:40;;;;;;;5.53;3.67;;;34.40;99.90;;;;;;4955098;28;20209;-43
2023/08/22 12:18:07;;;;;;;4.82;4.30;;;34.70;99.90;;;;;;4943407;28;20227;-43
2023/08/22 12:20:38;;;;;;;4.68;3.88;;;34.90;99.90;;;;;;4955874;28;20187;-43
2023/08/22 12:23:08;;;;;;;4.07;3.67;;;34.90;99.90;;;;;;4946041;28;20318;-43
2023/08/22 12:25:34;;;;;;;5.95;3.70;;;35.10;99.90;;;;;;4946864;28;20204;-43
2023/08/22 12:28:03;;;;;;;5.22;4.00;;;35.20;99.90;;;;;;4934989;29;20177;-43
2023/08/22 12:30:30;;;;;;;4.72;4.00;;;35.30;99.90;;;;;;4958836;28;20254;-43
2023/08/22 12:32:56;;;;;;;4.55;3.90;;;35.60;99.90;;;;;;4938237;28;20222;-43
2023/08/22 12:35:22;;;;;;;4.85;3.60;;;35.60;99.90;;;;;;4956170;28;20205;-43
2023/08/22 12:37:47;;;;;;;5.35;3.60;;;35.60;99.90;;;;;;4959784;28;20180;-43
2023/08/22 12:40:13;;;;;;;5.03;3.60;;;35.60;99.90;;;;;;4935620;29;20188;-43
2023/08/22 12:42:41;;;;;;;4.30;3.90;;;35.40;99.90;;;;;;4961816;28;20211;-43
2023/08/22 12:45:08;;;;;;;4.32;4.00;;;35.80;99.90;;;;;;4961693;28;20177;-43
2023/08/22 12:47:37;;;;;;;4.60;4.00;;;36.00;99.90;;;;;;4961748;28;20183;-43
2023/08/22 12:50:04;;;;;;;5.13;3.67;;;36.20;99.90;;;;;;4946625;28;20182;-43
2023/08/22 12:52:30;;;;;;;5.53;3.53;;;36.30;99.90;;;;;;4946050;28;20191;-43
2023/08/22 12:54:56;;;;;;;4.10;3.80;;;36.20;99.90;;;;;;4954178;28;20177;-43
2023/08/22 12:57:22;;;;;;;5.15;3.72;;;36.30;99.90;;;;;;4931231;29;20201;-43
2023/08/22 12:59:48;;;;;;;5.20;3.40;;;36.40;99.90;;;;;;4954957;28;20667;-43
2023/08/22 13:02:15;;;;;;;6.75;3.63;;;36.50;99.90;;;;;;4965883;28;20279;-43
2023/08/22 13:04:41;;;;;;;8.60;3.58;;;36.60;99.90;;;;;;4964876;28;20177;-43
2023/08/22 13:07:07;;;;;;;6.85;3.85;;;36.60;99.90;;;;;;4961503;28;20208;-43
2023/08/22 13:09:33;;;;;;;6.53;3.90;;;36.60;99.90;;;;;;4972206;28;20260;-43
2023/08/22 13:11:59;;;;;;;4.47;3.40;;;36.70;99.90;;;;;;4929188;28;20204;-43
2023/08/22 13:14:25;;;;;;;5.13;3.80;;;36.90;99.90;;;;;;4954311;28;20199;-43
2023/08/22 13:16:51;;;;;;;4.95;3.50;;;37.20;99.90;;;;;;4936902;28;20263;-43
2023/08/22 13:19:17;;;;;;;3.67;3.30;;;37.30;99.90;;;;;;4968196;28;20223;-43
2023/08/22 13:21:43;;;;;;;4.25;3.17;;;37.30;99.90;;;;;;4937643;28;20184;-43
2023/08/22 13:24:09;;;;;;;3.80;3.47;;;37.50;99.90;;;;;;4943340;29;20212;-43
2023/08/22 13:26:34;;;;;;;3.72;3.30;;;37.60;99.90;;;;;;4945821;28;20231;-43
2023/08/22 13:29:00;;;;;;;3.58;3.25;;;37.80;99.90;;;;;;4948641;28;20263;-43
2023/08/22 13:31:26;;;;;;;3.50;3.20;;;38.10;99.90;;;;;;4941818;28;20216;-43
2023/08/22 13:33:52;;;;;;;3.83;3.53;;;38.20;99.90;;;;;;4978899;28;20181;-43
2023/08/22 13:36:18;;;;;;;5.45;3.30;;;38.00;99.90;;;;;;4934311;28;20236;-43
2023/08/22 13:38:44;;;;;;;6.55;3.40;;;38.00;99.90;;;;;;4947083;28;20184;-42
2023/08/22 13:41:09;;;;;;;6.28;3.40;;;38.00;99.90;;;;;;4942188;29;20193;-42
2023/08/22 13:43:38;;;;;;;4.50;3.50;;;37.60;99.90;;;;;;4942911;28;20192;-43
2023/08/22 13:46:07;;;;;;;3.25;3.05;;;37.60;99.90;;;;;;4957435;28;20206;-43
2023/08/22 13:48:35;;;;;;;3.80;3.45;;;37.80;99.90;;;;;;4943093;28;20316;-45
2023/08/22 13:51:04;;;;;;;3.90;3.10;;;37.80;99.90;;;;;;4948903;28;20191;-44
2023/08/22 13:53:31;;;;;;;5.35;3.60;;;37.80;99.90;;;;;;4954221;28;20180;-45
2023/08/22 13:55:57;;;;;;;7.72;3.55;;;37.70;99.90;;;;;;4953861;28;20263;-44
2023/08/22 13:58:23;;;;;;;3.58;3.28;;;37.30;99.90;;;;;;4937176;28;20180;-45
2023/08/22 14:00:49;;;;;;;3.40;3.20;;;37.10;99.90;;;;;;4945375;28;20284;-44
2023/08/22 14:03:15;;;;;;;4.82;3.22;;;37.10;99.90;;;;;;4957605;28;20191;-45
2023/08/22 14:05:41;;;;;;;8.30;3.70;;;37.10;99.90;;;;;;4957465;28;20200;-45
2023/08/22 14:08:07;;;;;;;4.70;3.45;;;37.40;99.90;;;;;;4941516;28;20172;-44
2023/08/22 14:10:33;;;;;;;5.13;3.22;;;37.50;99.90;;;;;;4974191;28;20181;-45
2023/08/22 14:13:00;;;;;;;5.13;3.22;;;37.10;99.90;;;;;;4956512;28;20268;-44
2023/08/22 14:15:25;;;;;;;5.90;3.60;;;37.10;99.90;;;;;;4957305;28;20291;-44
2023/08/22 14:17:51;;;;;;;5.10;3.55;;;37.10;99.90;;;;;;4956993;28;20398;-44
2023/08/22 14:20:18;;;;;;;5.88;3.85;;;37.20;99.90;;;;;;4940863;28;20184;-44
2023/08/22 14:22:44;;;;;;;6.28;3.85;;;37.40;99.90;;;;;;4941081;28;20184;-45
2023/08/22 14:25:10;;;;;;;4.00;3.60;;;37.70;99.90;;;;;;4974275;28;20219;-44
2023/08/22 14:27:36;;;;;;;4.20;3.72;;;37.50;99.90;;;;;;4956213;28;20191;-44
2023/08/22 14:30:02;;;;;;;4.10;3.72;;;37.50;99.90;;;;;;4957162;28;20177;-45
2023/08/22 14:32:28;;;;;;;4.13;3.83;;;37.70;99.90;;;;;;4948074;28;20210;-44
2023/08/22 14:34:54;;;;;;;3.90;3.55;;;37.50;99.90;;;;;;4953713;28;20193;-44
2023/08/22 14:37:20;;;;;;;3.83;3.40;;;37.50;99.90;;;;;;4931736;29;20200;-45
2023/08/22 14:39:46;;;;;;;4.38;3.72;;;37.60;99.90;;;;;;4954307;28;20192;-45
2023/08/22 14:42:12;;;;;;;5.05;3.80;;;37.50;99.90;;;;;;4944330;28;20191;-44
2023/08/22 14:44:38;;;;;;;3.50;3.20;;;37.50;99.90;;;;;;4960178;28;20271;-44
2023/08/22 14:47:04;;;;;;;3.47;3.17;;;37.50;99.90;;;;;;4953373;28;20203;-45
2023/08/22 14:49:30;;;;;;;4.47;3.75;;;37.70;99.90;;;;;;4954459;28;20205;-44
2023/08/22 14:51:57;;;;;;;4.53;3.67;;;37.70;99.90;;;;;;4946224;28;20248;-44
2023/08/22 14:54:23;;;;;;;3.72;3.42;;;37.70;99.90;;;;;;4956456;28;20184;-44
2023/08/22 14:56:49;;;;;;;6.32;3.33;;;37.80;99.90;;;;;;4952381;28;20213;-44
2023/08/22 14:59:15;;;;;;;4.72;3.67;;;37.90;99.90;;;;;;4927953;29;20188;-43
2023/08/22 15:01:41;;;;;;;4.65;3.72;;;37.90;99.90;;;;;;4936889;28;20203;-45
2023/08/22 15:04:06;;;;;;;6.35;3.53;;;37.80;99.90;;;;;;4929320;29;20185;-43
2023/08/22 15:06:32;;;;;;;3.95;3.50;;;37.80;99.90;;;;;;4935644;28;20211;-44
2023/08/22 15:08:58;;;;;;;6.68;3.58;;;37.70;99.90;;;;;;4956185;28;20187;-44
2023/08/22 15:11:24;;;;;;;4.10;3.70;;;37.50;99.90;;;;;;4955278;28;20200;-45
2023/08/22 15:13:49;;;;;;;5.18;3.53;;;37.60;99.90;;;;;;4947296;28;20180;-45
2023/08/22 15:16:15;;;;;;;3.90;3.50;;;37.70;99.90;;;;;;4955868;28;20204;-45
2023/08/22 15:18:41;;;;;;;4.25;3.85;;;37.70;99.90;;;;;;4939732;28;20197;-44
2023/08/22 15:21:07;;;;;;;4.88;4.10;;;37.50;99.90;;;;;;4947570;28;20188;-44
2023/08/22 15:23:33;;;;;;;5.13;4.03;;;37.40;99.90;;;;;;4924134;28;20184;-43
2023/08/22 15:25:58;;;;;;;6.30;3.90;;;37.40;99.90;;;;;;4955346;28;20220;-43
2023/08/22 15:28:25;;;;;;;3.80;3.35;;;37.30;99.90;;;;;;4949113;29;20179;-44
2023/08/22 15:30:57;;;;;;;4.13;3.72;;;37.30;99.90;;;;;;4936595;28;20196;-44
2023/08/22 15:33:23;;;;;;;4.82;3.47;;;37.30;99.90;;;;;;4920990;29;20181;-43
2023/08/22 15:35:49;;;;;;;3.88;3.53;;;37.20;99.90;;;;;;4922672;28;20227;-44
2023/08/22 15:38:15;;;;;;;4.85;3.78;;;37.10;99.90;;;;;;4931735;28;20181;-44
2023/08/22 15:40:47;;;;;;;3.97;3.55;;;37.00;99.90;;;;;;4936050;29;20195;-44
2023/08/22 15:43:14;;;;;;;4.10;3.70;;;36.80;99.90;;;;;;4949228;28;20192;-44
2023/08/22 15:45:40;;;;;;;4.32;3.92;;;36.70;99.90;;;;;;4953783;28;20243;-44
2023/08/22 15:48:06;;;;;;;5.60;3.85;;;36.50;99.90;;;;;;4939687;28;20215;-42
2023/08/22 15:50:32;;;;;;;4.03;3.63;;;36.50;99.90;;;;;;4947494;28;20191;-43
2023/08/22 15:52:58;;;;;;;4.40;4.00;;;36.40;99.90;;;;;;4939185;28;20279;-44
2023/08/22 15:55:23;;;;;;;5.40;3.95;;;36.40;99.90;;;;;;4951562;28;20202;-43
2023/08/22 15:57:49;;;;;;;4.43;3.95;;;36.20;99.90;;;;;;4969551;28;20184;-43
2023/08/22 16:00:15;;;;;;;5.07;4.22;;;36.00;99.90;;;;;;4936164;29;20255;-42
2023/08/22 16:02:44;;;;;;;7.57;4.57;;;35.70;99.90;;;;;;4935530;28;20235;-43
2023/08/22 16:05:10;;;;;;;5.95;4.22;;;35.50;99.90;;;;;;4931524;28;20189;-44
2023/08/22 16:07:37;;;;;;;5.47;4.28;;;35.20;99.90;;;;;;4951678;28;20215;-41
2023/08/22 16:10:03;;;;;;;6.43;4.40;;;34.90;99.90;;;;;;4955002;28;20189;-44
2023/08/22 16:12:29;;;;;;;7.70;3.92;;;34.70;99.90;;;;;;4949030;28;20220;-43
2023/08/22 16:14:55;;;;;;;4.50;4.10;;;34.50;99.90;;;;;;4939525;28;20276;-43
2023/08/22 16:17:21;;;;;;;5.95;4.00;;;34.40;99.90;;;;;;4972109;23;20751;-31
2023/08/22 16:19:46;;;;;;;5.25;4.75;;;34.00;99.90;;;;;;4993651;28;20222;-30
2023/08/22 16:22:12;;;;;;;5.22;4.65;;;33.80;99.90;;;;;;4976948;28;20190;-31
2023/08/22 16:24:38;;;;;;;5.55;3.97;;;33.50;99.90;;;;;;4977646;28;20187;-31
2023/08/22 16:27:04;;;;;;;6.82;4.53;;;33.10;99.90;;;;;;4980178;28;20202;-31
2023/08/22 16:29:30;;;;;;;6.90;4.50;;;32.90;99.90;;;;;;5010493;28;20199;-31
2023/08/22 16:31:57;;;;;;;5.10;4.40;;;32.70;99.90;;;;;;4999954;28;20218;-31
2023/08/22 16:34:22;;;;;;;5.30;4.40;;;32.60;99.90;;;;;;4992554;28;20190;-31
2023/08/22 16:36:48;;;;;;;4.75;4.10;;;32.50;99.90;;;;;;4990441;28;20180;-31
2023/08/22 16:39:16;;;;;;;4.80;4.20;;;32.30;99.90;;;;;;4990234;28;20204;-31
2023/08/22 16:41:42;;;;;;;5.18;4.20;;;32.30;99.90;;;;;;4993637;28;20187;-31
2023/08/22 16:44:07;;;;;;;6.18;4.38;;;32.10;99.90;;;;;;4976813;28;20190;-31
2023/08/22 16:46:34;;;;;;;6.40;4.28;;;32.10;99.90;;;;;;5001903;28;20191;-32
2023/08/22 16:48:59;;;;;;;8.60;4.32;;;31.90;99.90;;;;;;5008255;28;20297;-31
2023/08/22 16:51:29;;;;;;;5.15;4.30;;;31.90;99.90;;;;;;5009423;28;20285;-31
2023/08/22 16:53:55;;;;;;;5.47;4.47;;;31.70;99.90;;;;;;4990828;28;20180;-31
2023/08/22 16:56:22;;;;;;;5.30;4.38;;;31.70;99.90;;;;;;5009698;28;20250;-31
2023/08/22 16:58:47;;;;;;;10.35;4.60;;;31.50;99.90;;;;;;4990584;28;20211;-31
2023/08/22 17:01:13;;;;;;;7.32;4.60;;;31.50;99.90;;;;;;4990226;28;20190;-31
2023/08/22 17:03:41;;;;;;;6.28;4.20;;;31.40;99.90;;;;;;5005321;28;20179;-31
2023/08/22 17:06:07;;;;;;;6.00;4.55;;;31.40;99.90;;;;;;4995113;28;20189;-31
2023/08/22 17:08:33;;;;;;;6.28;4.03;;;31.40;99.90;;;;;;5006628;28;20199;-32
2023/08/22 17:11:07;;;;;;;5.25;4.30;;;31.40;99.90;;;;;;5009545;28;20215;-32
2023/08/22 17:13:43;;;;;;;4.35;3.95;;;31.30;99.90;;;;;;5008839;28;20266;-31
2023/08/22 17:16:10;;;;;;;6.50;4.43;;;31.20;99.90;;;;;;4992355;28;20265;-32
2023/08/22 17:18:37;;;;;;;4.63;4.15;;;31.20;99.90;;;;;;5002797;28;20219;-31
2023/08/22 17:21:06;;;;;;;4.40;3.80;;;31.10;99.90;;;;;;4993357;28;20179;-31
2023/08/22 17:23:38;;;;;;;5.68;4.03;;;31.10;99.90;;;;;;4995785;28;20196;-31
2023/08/22 17:26:06;;;;;;;4.28;3.80;;;31.10;99.90;;;;;;4993158;28;20183;-32
2023/08/22 17:28:31;;;;;;;4.55;3.90;;;31.10;99.90;;;;;;4996978;28;20205;-31
2023/08/22 17:30:57;;;;;;;5.03;4.05;;;31.20;99.90;;;;;;4995186;28;20192;-31
2023/08/22 17:33:23;;;;;;;5.03;4.00;;;31.10;99.90;;;;;;4990932;28;20213;-31
2023/08/22 17:35:49;;;;;;;5.22;4.20;;;31.10;99.90;;;;;;4977039;28;20290;-32
2023/08/22 17:38:17;;;;;;;4.95;3.90;;;31.10;99.90;;;;;;4998042;28;20202;-31
2023/08/22 17:40:43;;;;;;;4.70;4.25;;;31.10;99.90;;;;;;5014538;28;20267;-31
2023/08/22 17:43:09;;;;;;;5.75;3.80;;;30.90;99.90;;;;;;4984938;28;20241;-31
2023/08/22 17:45:36;;;;;;;4.82;3.95;;;30.90;99.90;;;;;;4993212;28;20667;-33
2023/08/22 17:48:07;;;;;;;6.28;3.88;;;30.90;99.90;;;;;;4976711;28;20212;-31
2023/08/22 17:50:33;;;;;;;6.43;3.97;;;30.90;99.90;;;;;;4996645;28;20202;-31
2023/08/22 17:52:59;;;;;;;5.10;4.60;;;30.90;99.90;;;;;;4994963;28;20215;-30
2023/08/22 17:55:25;;;;;;;4.35;3.78;;;30.90;99.90;;;;;;4976949;28;20180;-31
2023/08/22 17:57:51;;;;;;;4.20;3.70;;;30.80;99.90;;;;;;4977107;28;20211;-31
2023/08/22 18:00:18;;;;;;;4.63;4.13;;;30.80;99.90;;;;;;4996433;28;20179;-31
2023/08/22 18:02:43;;;;;;;4.88;4.03;;;30.70;99.90;;;;;;5012757;28;20195;-31
2023/08/22 18:05:12;;;;;;;4.10;3.80;;;30.60;99.90;;;;;;4995613;28;20189;-31
2023/08/22 18:07:38;;;;;;;5.57;4.28;;;30.60;99.90;;;;;;5010348;28;20206;-31
2023/08/22 18:10:05;;;;;;;5.05;4.20;;;30.50;99.90;;;;;;5012566;28;20195;-31
2023/08/22 18:12:30;;;;;;;4.82;4.07;;;30.40;99.90;;;;;;4994772;28;20297;-30
2023/08/22 18:14:57;;;;;;;8.32;4.25;;;30.40;99.90;;;;;;4996096;28;20708;-30
2023/08/22 18:17:25;;;;;;;7.03;3.90;;;30.40;99.90;;;;;;4995589;28;20179;-31
2023/08/22 18:19:51;;;;;;;10.20;3.95;;;30.30;99.90;;;;;;5005635;28;20256;-32
2023/08/22 18:22:17;;;;;;;6.45;3.92;;;30.30;99.90;;;;;;5011513;28;20262;-31
2023/08/22 18:24:43;;;;;;;7.30;3.85;;;30.20;99.90;;;;;;4997169;28;20650;-31
2023/08/22 18:27:09;;;;;;;5.75;4.22;;;30.10;99.90;;;;;;4981533;28;20206;-31
2023/08/22 18:29:35;;;;;;;5.80;3.85;;;30.10;99.90;;;;;;5009606;28;20226;-31
2023/08/22 18:32:01;;;;;;;4.90;4.10;;;30.00;99.90;;;;;;4995848;28;20207;-30